Latest Weather Observations for Scone Airport

IDN60801

Issued at 7:35 am EDT Friday 21 November 2014 (issued every 30 minutes, with the page automatically refreshed every 10 minutes)

About weather observations | Map of weather stations | Latest weather observations for NSW | Other Formats
Station Details ID: 061363 Name: SCONE AIRPORT AWS Lat: -32.03 Lon: 150.83 Height: 221.4 m
Data from the previous 72 hours. | See also: Recent months at Scone Airport
Date/Time
EDT
Temp
°C
App
Temp
°C
Dew
Point
Rel
Hum
%
Delta-T
°C
Wind Press
QNH
hPa
Press
MSL
hPa
Rain
since 9 am
mm
Dir
 
Spd
km/h
Gust
km/h
Spd
kts
Gust
kts
21/07:30am 30.4 28.6 16.0 41 9.0 NNW 20 30 11 16 1009.0 1008.2 0.0
21/07:00am 29.2 27.3 15.3 42 8.6 N 19 32 10 17 1008.7 1007.9 0.0
21/06:30am 28.8 26.7 14.6 42 8.7 N 19 30 10 16 1008.6 1007.8 0.0
21/06:00am 28.9 26.7 14.3 40 8.9 N 19 24 10 13 1008.3 1007.5 0.0
21/05:30am 27.9 26.8 13.1 40 8.8 NNW 11 17 6 9 1008.1 1007.3 0.0
21/05:00am 28.3 26.6 12.6 38 9.3 NNW 13 19 7 10 1007.9 1007.1 0.0
21/04:30am 26.3 24.8 12.0 41 8.3 NW 11 13 6 7 1007.9 1007.1 0.0
21/04:00am 21.9 20.6 9.8 46 6.6 NNW 7 11 4 6 1007.7 1006.9 0.0
21/03:30am 23.8 21.9 10.5 43 7.4 N 11 13 6 7 1007.6 1006.8 0.0
21/03:00am 20.4 19.3 9.9 51 5.7 N 6 9 3 5 1007.5 1006.7 0.0
21/02:30am 20.3 19.0 10.1 52 5.6 NW 7 11 4 6 1007.6 1006.8 0.0
21/02:00am 20.7 19.6 9.9 50 5.9 NW 6 9 3 5 1008.0 1007.2 0.0
21/01:30am 21.3 20.5 9.5 47 6.4 NNW 4 7 2 4 1008.1 1007.3 0.0
21/01:00am 22.3 21.8 9.5 44 7.0 N 2 9 1 5 1008.3 1007.5 0.0
21/12:30am 23.1 22.5 10.5 45 7.0 N 4 7 2 4 1008.7 1007.9 0.0
21/12:00am 24.1 22.8 9.3 39 8.1 NNW 6 9 3 5 1009.0 1008.2 0.0
 
Date/Time
EDT
Temp
°C
App
Temp
°C
Dew
Point
Rel
Hum
%
Delta-T
°C
Wind Press
QNH
hPa
Press
MSL
hPa
Rain
since 9 am
mm
Dir
 
Spd
km/h
Gust
km/h
Spd
kts
Gust
kts
20/11:30pm 24.4 23.4 8.8 37 8.5 NNW 4 6 2 3 1009.1 1008.3 0.0
20/11:00pm 25.3 23.7 8.7 35 9.1 WNW 7 9 4 5 1009.2 1008.4 0.0
20/10:30pm 25.7 24.1 8.7 34 9.3 NNW 7 9 4 5 1009.1 1008.3 0.0
20/10:00pm 26.1 25.8 8.6 33 9.6 CALM 0 0 0 0 1009.0 1008.2 0.0
20/09:30pm 27.0 25.3 7.5 29 10.5 NNW 6 11 3 6 1008.8 1008.0 0.0
20/09:00pm 31.0 28.7 7.5 23 13.0 NNW 9 13 5 7 1008.6 1007.8 0.0
20/08:30pm 31.1 28.4 7.5 23 13.0 NNW 11 17 6 9 1008.3 1007.5 0.0
20/08:00pm 31.8 29.4 6.8 21 13.7 NW 9 15 5 8 1008.0 1007.2 0.0
20/07:30pm 32.4 29.5 6.6 20 14.1 NW 11 15 6 8 1007.8 1007.0 0.0
20/07:00pm 33.7 29.6 6.1 18 15.1 NW 17 24 9 13 1007.5 1006.7 0.0
20/06:30pm 34.6 29.7 6.8 18 15.4 NNW 22 32 12 17 1007.0 1006.2 0.0
20/06:00pm 34.8 30.5 7.0 18 15.5 NW 19 30 10 16 1006.8 1006.0 0.0
20/05:30pm 35.1 31.0 8.0 19 15.3 NW 19 28 10 15 1006.9 1006.1 0.0
20/05:00pm 35.3 30.3 6.6 17 16.0 NW 22 35 12 19 1007.3 1006.5 0.0
20/04:30pm 36.1 30.3 6.3 16 16.5 WNW 26 39 14 21 1007.6 1006.8 0.0
20/04:00pm 36.4 31.2 5.6 15 16.9 NW 22 37 12 20 1007.9 1007.1 0.0
20/03:30pm 35.9 30.5 7.9 18 15.9 NW 26 37 14 20 1008.5 1007.7 0.0
20/03:00pm 36.6 32.6 8.4 18 16.2 WNW 19 30 10 16 1008.9 1008.1 0.0
20/02:30pm 35.3 30.9 6.6 17 15.9 NNW 19 32 10 17 1009.4 1008.6 0.0
20/02:00pm 35.1 28.8 5.5 16 16.1 WNW 28 35 15 19 1010.0 1009.2 0.0
20/01:30pm 35.4 31.2 8.3 19 15.4 NW 20 37 11 20 1010.7 1009.9 0.0
20/01:00pm 34.1 30.2 8.7 21 14.5 NW 19 28 10 15 1011.3 1010.6 0.0
20/12:30pm 33.0 29.4 10.4 25 13.2 NW 20 24 11 13 1012.0 1011.2 0.0
20/12:00pm 33.5 30.1 11.4 26 13.1 NNW 20 28 11 15 1012.5 1011.7 0.0
20/11:30am 32.5 29.2 11.6 28 12.4 NW 20 44 11 24 1013.0 1012.2 0.0
20/11:00am 32.2 29.1 13.4 32 11.4 WNW 22 32 12 17 1013.5 1012.7 0.0
20/10:30am 30.3 28.2 13.6 36 10.1 NNW 17 24 9 13 1014.1 1013.3 0.0
20/10:00am 28.5 27.8 14.3 41 8.6 W 11 17 6 9 1014.5 1013.7 0.0
20/09:30am 27.2 28.1 15.2 47 7.3 E 4 9 2 5 1014.8 1014.0 0.0
20/09:00am 24.2 25.4 14.9 56 5.6 W 2 7 1 4 1015.5 1014.8 0.0
20/08:30am 21.6 22.7 15.7 69 3.6 S 4 7 2 4 1015.8 1015.1 0.0
20/08:00am 19.5 20.8 15.2 76 2.6 SE 2 6 1 3 1015.9 1015.2 0.0
20/07:30am 18.6 20.3 16.2 86 1.4 N 2 7 1 4 1016.0 1015.3 0.0
20/07:00am 17.2 18.9 16.2 94 0.6 N 2 6 1 3 1016.1 1015.4 0.0
20/06:30am 16.8 17.7 16.0 95 0.5 NNE 6 7 3 4 1016.2 1015.5 0.0
20/06:00am 16.8 18.8 16.0 95 0.5 CALM 0 0 0 0 1016.1 1015.4 0.0
20/05:30am 16.9 17.8 16.1 95 0.5 ENE 6 6 3 3 1016.0 1015.3 0.0
20/05:00am 17.4 18.9 15.7 90 1.0 WNW 2 6 1 3 1015.5 1014.8 0.0
20/04:30am 17.5 18.5 16.4 93 0.7 NNE 6 7 3 4 1015.3 1014.6 0.0
20/04:00am 17.5 18.9 16.4 93 0.7 NE 4 7 2 4 1015.4 1014.7 0.0
20/03:30am 16.8 18.6 15.5 92 0.8 CALM 0 0 0 0 1015.5 1014.8 0.0
20/03:00am 16.7 18.7 15.9 95 0.5 CALM 0 0 0 0 1015.4 1014.7 0.0
20/02:30am 15.5 16.7 13.9 90 0.9 CALM 0 0 0 0 1015.6 1014.9 0.0
20/02:00am 16.8 17.5 15.7 93 0.7 NNE 6 9 3 5 1015.7 1015.0 0.0
20/01:30am 16.2 17.9 15.1 93 0.6 CALM 0 0 0 0 1016.1 1015.4 0.0
20/01:00am 16.4 16.7 15.1 92 0.8 N 7 9 4 5 1016.3 1015.6 0.0
20/12:30am 17.1 17.8 15.6 91 0.9 E 6 7 3 4 1016.2 1015.5 0.0
20/12:00am 17.3 19.0 15.3 88 1.2 CALM 0 6 0 3 1016.0 1015.3 0.0
 
Date/Time
EDT
Temp
°C
App
Temp
°C
Dew
Point
Rel
Hum
%
Delta-T
°C
Wind Press
QNH
hPa
Press
MSL
hPa
Rain
since 9 am
mm
Dir
 
Spd
km/h
Gust
km/h
Spd
kts
Gust
kts
19/11:30pm 17.4 18.3 15.0 86 1.4 ESE 4 9 2 5 1015.8 1015.1 0.0
19/11:00pm 17.7 18.2 15.0 84 1.6 E 6 7 3 4 1015.9 1015.2 0.0
19/10:30pm 18.7 19.1 15.4 81 2.0 SSE 7 9 4 5 1015.9 1015.2 0.0
19/10:00pm 19.4 17.7 15.7 79 2.2 S 19 24 10 13 1015.6 1014.9 0.0
19/09:30pm 19.7 18.3 15.6 77 2.5 S 17 22 9 12 1015.5 1014.8 0.0
19/09:00pm 20.1 18.3 15.5 75 2.8 S 19 26 10 14 1015.4 1014.7 0.0
19/08:30pm 20.7 18.3 15.5 72 3.1 S 22 30 12 16 1015.1 1014.4 0.0
19/08:00pm 21.3 18.5 15.4 69 3.5 S 24 32 13 17 1014.9 1014.1 0.0
19/07:30pm 22.2 18.6 15.3 65 4.2 S 28 35 15 19 1014.8 1014.0 0.0
19/07:00pm 23.7 19.7 15.2 59 5.1 S 30 39 16 21 1014.5 1013.7 0.0
19/06:30pm 25.3 21.2 15.0 53 6.2 S 30 37 16 20 1014.2 1013.4 0.0
19/06:00pm 26.1 21.7 15.2 51 6.6 S 32 39 17 21 1014.1 1013.3 0.0
19/05:30pm 26.1 22.0 14.9 50 6.8 S 30 41 16 22 1014.2 1013.4 0.0
19/05:00pm 26.8 22.4 15.2 49 7.1 SSE 32 41 17 22 1014.5 1013.7 0.0
19/04:30pm 27.5 22.3 14.5 45 7.9 SSE 35 44 19 24 1014.4 1013.6 0.0
19/04:00pm 28.1 22.5 13.2 39 8.9 S 35 46 19 25 1014.6 1013.8 0.0
19/03:30pm 30.3 26.5 9.2 27 11.9 S 19 30 10 16 1014.7 1013.9 0.0
19/03:00pm 31.2 28.0 10.0 27 12.2 SSW 17 20 9 11 1015.2 1014.5 0.0
19/02:30pm 28.9 25.3 10.6 32 10.5 SSE 20 24 11 13 1016.1 1015.4 0.0
19/02:00pm 28.6 24.9 10.3 32 10.4 SSE 20 26 11 14 1016.4 1015.7 0.0
19/01:30pm 28.2 25.7 10.9 34 9.9 S 15 24 8 13 1017.1 1016.3 0.0
19/01:00pm 27.2 24.1 10.4 35 9.5 S 17 28 9 15 1017.5 1016.7 0.0
19/12:30pm 27.4 24.0 10.6 35 9.6 SE 19 28 10 15 1017.9 1017.1 0.0
19/12:00pm 27.8 24.3 10.9 35 9.7 SSE 20 26 11 14 1018.4 1017.6 0.0
19/11:30am 27.0 23.9 11.5 38 8.9 SSE 19 30 10 16 1019.1 1018.4 0.0
19/11:00am 26.2 24.2 11.5 40 8.4 E 13 26 7 14 1019.3 1018.6 0.0
19/10:30am 25.8 23.1 13.0 45 7.5 SSE 19 32 10 17 1019.8 1019.1 0.0
19/10:00am 24.4 22.0 12.7 48 6.8 SSE 17 24 9 13 1020.1 1019.4 0.0
19/09:30am 22.8 20.5 13.0 54 5.7 SSW 17 24 9 13 1020.3 1019.6 0.0
19/09:00am 21.6 19.6 14.0 62 4.4 S 17 22 9 12 1020.5 1019.8 0.0
19/08:30am 20.3 19.5 14.0 67 3.7 SSE 11 17 6 9 1020.7 1020.0 0.0
19/08:00am 19.8 18.1 13.7 68 3.5 SE 15 20 8 11 1020.5 1019.8 0.0
19/07:30am 18.5 17.6 13.8 74 2.7 SE 11 19 6 10 1020.6 1019.9 0.0
19/07:00am 16.4 16.2 13.1 81 1.9 ENE 6 7 3 4 1020.4 1019.7 0.0
19/06:30am 14.6 14.7 12.6 88 1.1 ESE 4 7 2 4 1020.2 1019.5 0.0
19/06:00am 14.1 14.0 12.0 87 1.1 SE 4 6 2 3 1020.0 1019.3 0.0
19/05:30am 14.8 13.4 12.3 85 1.4 S 11 13 6 7 1019.7 1019.0 0.0
19/05:00am 15.4 13.8 12.7 84 1.5 S 13 17 7 9 1019.5 1018.8 0.0
19/04:30am 15.5 13.4 12.4 82 1.7 S 15 20 8 11 1019.3 1018.6 0.0
19/04:00am 15.8 13.3 12.4 80 1.9 S 17 20 9 11 1019.1 1018.4 0.0
19/03:30am 15.8 13.2 12.0 78 2.1 S 17 22 9 12 1019.0 1018.3 0.0
19/03:00am 16.0 13.4 12.0 77 2.2 S 17 22 9 12 1019.0 1018.3 0.0
19/02:30am 16.5 13.4 12.3 76 2.3 S 20 26 11 14 1019.1 1018.4 0.0
19/02:00am 17.0 13.9 12.3 74 2.6 S 20 28 11 15 1019.1 1018.4 0.0
19/01:30am 17.3 14.6 13.6 79 2.1 S 20 26 11 14 1019.4 1018.7 0.0
19/01:00am 17.5 14.7 14.2 81 1.9 S 22 32 12 17 1019.3 1018.6 0.0
19/12:30am 17.8 14.9 14.1 79 2.1 S 22 32 12 17 1019.2 1018.5 0.0
19/12:00am 18.2 15.1 13.5 74 2.7 S 22 30 12 16 1019.2 1018.5 0.0
 
Date/Time
EDT
Temp
°C
App
Temp
°C
Dew
Point
Rel
Hum
%
Delta-T
°C
Wind Press
QNH
hPa
Press
MSL
hPa
Rain
since 9 am
mm
Dir
 
Spd
km/h
Gust
km/h
Spd
kts
Gust
kts
18/11:30pm 18.4 15.5 12.8 70 3.2 S 20 26 11 14 1019.0 1018.3 0.0
18/11:00pm 18.8 15.7 12.1 65 3.7 S 20 26 11 14 1018.8 1018.0 0.0
18/10:30pm 19.1 15.7 11.4 61 4.3 S 20 24 11 13 1018.6 1017.8 0.0
18/10:00pm 19.7 15.9 11.2 58 4.7 S 22 28 12 15 1018.3 1017.5 0.0
18/09:30pm 20.3 15.7 11.2 56 5.1 S 26 32 14 17 1017.6 1016.8 0.0
18/09:00pm 21.1 16.6 11.4 54 5.4 S 26 35 14 19 1016.9 1016.1 0.0
18/08:30pm 22.5 18.1 11.6 50 6.2 S 26 33 14 18 1015.9 1015.2 0.0
18/08:00pm 23.9 20.2 11.6 46 7.0 S 22 30 12 16 1015.2 1014.5 0.0
18/07:30pm 26.8 23.9 1.3 19 12.3 ESE 6 9 3 5 1014.6 1013.8 0.0
18/07:00pm 28.9 25.0 1.4 17 13.5 E 11 13 6 7 1014.0 1013.2 0.0
18/06:30pm 29.5 25.1 0.2 15 14.1 E 13 19 7 10 1013.8 1013.0 0.0
18/06:00pm 30.1 25.4 0.6 15 14.4 ENE 15 20 8 11 1013.5 1012.7 0.0
18/05:30pm 30.1 26.0 2.4 17 13.9 E 13 26 7 14 1013.4 1012.6 0.0
18/05:00pm 29.9 26.3 0.5 15 14.3 E 9 19 5 10 1013.3 1012.5 0.0
18/04:30pm 30.2 26.4 1.6 16 14.2 ESE 11 17 6 9 1013.4 1012.6 0.0
18/04:00pm 30.6 26.4 -0.9 13 15.0 SSE 11 17 6 9 1013.5 1012.7 0.0
18/03:48pm 31.8 24.2 -2.3 11 16.0 N 28 37 15 20 1013.0 1012.2 0.0
18/03:30pm 30.5 27.2 0.0 14 14.8 SW 7 17 4 9 1013.6 1012.8 0.0
18/03:00pm 30.6 26.5 0.1 14 14.8 WNW 11 22 6 12 1013.9 1013.1 0.0
18/02:30pm 29.4 25.0 2.6 18 13.5 S 15 20 8 11 1014.2 1013.4 0.0
18/02:00pm 29.1 25.0 4.6 21 12.7 WNW 15 24 8 13 1014.7 1013.9 0.0
18/01:30pm 28.2 25.0 6.9 26 11.4 W 13 22 7 12 1014.8 1014.0 0.0
18/01:00pm 27.8 25.5 9.1 31 10.4 ESE 11 20 6 11 1015.4 1014.7 0.0
18/12:30pm 27.3 25.3 10.1 34 9.7 SSE 11 19 6 10 1015.7 1015.0 0.0
18/12:00pm 26.1 24.1 10.3 37 8.9 SSW 11 20 6 11 1016.2 1015.5 0.0
18/11:30am 24.7 22.7 10.2 40 8.1 SSE 11 19 6 10 1016.8 1016.0 0.0
18/11:00am 23.1 21.8 11.2 47 6.7 S 9 19 5 10 1017.2 1016.4 0.0
18/10:30am 22.2 21.2 12.2 53 5.7 E 9 19 5 10 1017.3 1016.5 0.0
18/10:00am 21.2 19.8 12.3 57 5.1 SE 11 19 6 10 1017.5 1016.7 0.0
18/09:30am 20.4 19.5 12.6 61 4.4 SE 9 17 5 9 1017.5 1016.7 0.0
18/09:00am 19.0 18.5 12.0 64 3.9 ENE 6 11 3 6 1017.5 1016.7 0.0
18/08:30am 18.1 18.3 11.9 67 3.4 NE 2 6 1 3 1017.5 1016.7 0.0
18/08:00am 16.6 16.3 11.3 71 2.9 NNE 4 9 2 5 1017.3 1016.5 0.0

Other Formats:

Comma delimited format used in spreadsheet applications
http://www.bom.gov.au/fwo/IDN60801/IDN60801.95758.axf

JavaScript Object Notation format (JSON) in row-major order
http://www.bom.gov.au/fwo/IDN60801/IDN60801.95758.json